sensor_id;sensor_type;location;lat;lon;timestamp;P1;durP1;ratioP1;P2;durP2;ratioP2
57561;SDS011;43397;51.530;5.974;2023-02-28T00:00:44;10.75;;;9.02;;
57561;SDS011;43397;51.530;5.974;2023-02-28T00:03:10;12.75;;;9.52;;
57561;SDS011;43397;51.530;5.974;2023-02-28T00:05:36;11.55;;;8.88;;
57561;SDS011;43397;51.530;5.974;2023-02-28T00:08:02;12.27;;;9.88;;
57561;SDS011;43397;51.530;5.974;2023-02-28T00:10:28;16.25;;;10.45;;
57561;SDS011;43397;51.530;5.974;2023-02-28T00:12:56;14.30;;;9.77;;
57561;SDS011;43397;51.530;5.974;2023-02-28T00:15:25;15.23;;;9.55;;
57561;SDS011;43397;51.530;5.974;2023-02-28T00:17:53;13.25;;;9.63;;
57561;SDS011;43397;51.530;5.974;2023-02-28T00:20:19;13.70;;;10.18;;
57561;SDS011;43397;51.530;5.974;2023-02-28T00:22:46;16.38;;;10.50;;
57561;SDS011;43397;51.530;5.974;2023-02-28T00:25:16;13.60;;;9.38;;
57561;SDS011;43397;51.530;5.974;2023-02-28T00:27:43;17.45;;;10.82;;
57561;SDS011;43397;51.530;5.974;2023-02-28T00:30:10;14.90;;;10.43;;
57561;SDS011;43397;51.530;5.974;2023-02-28T00:32:38;15.25;;;10.63;;
57561;SDS011;43397;51.530;5.974;2023-02-28T00:35:06;14.50;;;10.90;;
57561;SDS011;43397;51.530;5.974;2023-02-28T00:37:33;14.43;;;10.45;;
57561;SDS011;43397;51.530;5.974;2023-02-28T00:39:59;13.70;;;10.07;;
57561;SDS011;43397;51.530;5.974;2023-02-28T00:42:25;18.98;;;10.80;;
57561;SDS011;43397;51.530;5.974;2023-02-28T00:44:51;18.00;;;11.10;;
57561;SDS011;43397;51.530;5.974;2023-02-28T00:47:17;14.30;;;10.02;;
57561;SDS011;43397;51.530;5.974;2023-02-28T00:49:43;15.48;;;11.27;;
57561;SDS011;43397;51.530;5.974;2023-02-28T00:52:11;17.08;;;11.25;;
57561;SDS011;43397;51.530;5.974;2023-02-28T00:54:36;15.95;;;11.15;;
57561;SDS011;43397;51.530;5.974;2023-02-28T00:57:02;15.20;;;11.27;;
57561;SDS011;43397;51.530;5.974;2023-02-28T00:59:28;16.10;;;11.63;;
57561;SDS011;43397;51.530;5.974;2023-02-28T01:01:54;18.83;;;11.10;;
57561;SDS011;43397;51.530;5.974;2023-02-28T01:04:20;16.38;;;11.52;;
57561;SDS011;43397;51.530;5.974;2023-02-28T01:06:45;14.35;;;11.38;;
57561;SDS011;43397;51.530;5.974;2023-02-28T01:09:12;16.95;;;11.50;;
57561;SDS011;43397;51.530;5.974;2023-02-28T01:11:38;16.25;;;11.43;;
57561;SDS011;43397;51.530;5.974;2023-02-28T01:14:04;16.33;;;12.20;;
57561;SDS011;43397;51.530;5.974;2023-02-28T01:16:30;16.70;;;11.13;;
57561;SDS011;43397;51.530;5.974;2023-02-28T01:18:56;17.52;;;11.05;;
57561;SDS011;43397;51.530;5.974;2023-02-28T01:21:22;17.58;;;11.80;;
57561;SDS011;43397;51.530;5.974;2023-02-28T01:23:49;17.38;;;11.77;;
57561;SDS011;43397;51.530;5.974;2023-02-28T01:26:17;13.43;;;11.20;;
57561;SDS011;43397;51.530;5.974;2023-02-28T01:28:45;15.82;;;11.30;;
57561;SDS011;43397;51.530;5.974;2023-02-28T01:31:11;16.40;;;10.43;;
57561;SDS011;43397;51.530;5.974;2023-02-28T01:33:37;14.40;;;10.70;;
57561;SDS011;43397;51.530;5.974;2023-02-28T01:36:04;15.80;;;11.00;;
57561;SDS011;43397;51.530;5.974;2023-02-28T01:38:32;17.83;;;12.07;;
57561;SDS011;43397;51.530;5.974;2023-02-28T01:40:57;14.90;;;10.95;;
57561;SDS011;43397;51.530;5.974;2023-02-28T01:43:26;16.70;;;11.07;;
57561;SDS011;43397;51.530;5.974;2023-02-28T01:45:53;18.02;;;11.10;;
57561;SDS011;43397;51.530;5.974;2023-02-28T01:48:21;15.27;;;11.32;;
57561;SDS011;43397;51.530;5.974;2023-02-28T01:50:49;20.48;;;11.45;;
57561;SDS011;43397;51.530;5.974;2023-02-28T01:53:15;18.45;;;11.35;;
57561;SDS011;43397;51.530;5.974;2023-02-28T01:55:46;18.17;;;11.15;;
57561;SDS011;43397;51.530;5.974;2023-02-28T01:58:13;16.33;;;11.85;;
57561;SDS011;43397;51.530;5.974;2023-02-28T02:00:41;16.10;;;11.38;;
57561;SDS011;43397;51.530;5.974;2023-02-28T02:03:08;17.17;;;11.55;;
57561;SDS011;43397;51.530;5.974;2023-02-28T02:05:36;14.88;;;11.50;;
57561;SDS011;43397;51.530;5.974;2023-02-28T02:08:04;16.27;;;10.23;;
57561;SDS011;43397;51.530;5.974;2023-02-28T02:10:32;15.98;;;11.02;;
57561;SDS011;43397;51.530;5.974;2023-02-28T02:13:16;17.73;;;12.23;;
57561;SDS011;43397;51.530;5.974;2023-02-28T02:15:56;16.35;;;10.63;;
57561;SDS011;43397;51.530;5.974;2023-02-28T02:18:30;16.60;;;11.77;;
57561;SDS011;43397;51.530;5.974;2023-02-28T02:21:18;18.13;;;11.70;;
57561;SDS011;43397;51.530;5.974;2023-02-28T02:27:17;17.00;;;12.23;;
57561;SDS011;43397;51.530;5.974;2023-02-28T02:30:02;19.50;;;12.20;;
57561;SDS011;43397;51.530;5.974;2023-02-28T02:35:51;18.65;;;11.70;;
57561;SDS011;43397;51.530;5.974;2023-02-28T02:38:26;16.02;;;10.23;;
57561;SDS011;43397;51.530;5.974;2023-02-28T02:41:01;15.52;;;10.85;;
57561;SDS011;43397;51.530;5.974;2023-02-28T02:43:34;14.18;;;10.18;;
57561;SDS011;43397;51.530;5.974;2023-02-28T02:46:06;15.13;;;10.70;;
57561;SDS011;43397;51.530;5.974;2023-02-28T02:48:38;14.30;;;10.13;;
57561;SDS011;43397;51.530;5.974;2023-02-28T02:51:09;14.85;;;9.98;;
57561;SDS011;43397;51.530;5.974;2023-02-28T02:53:40;15.07;;;10.13;;
57561;SDS011;43397;51.530;5.974;2023-02-28T02:56:10;14.57;;;9.60;;
57561;SDS011;43397;51.530;5.974;2023-02-28T02:58:39;15.13;;;9.93;;
57561;SDS011;43397;51.530;5.974;2023-02-28T03:03:35;16.60;;;9.50;;
57561;SDS011;43397;51.530;5.974;2023-02-28T03:06:02;12.80;;;9.20;;
57561;SDS011;43397;51.530;5.974;2023-02-28T03:08:31;15.85;;;9.98;;
57561;SDS011;43397;51.530;5.974;2023-02-28T03:11:00;14.00;;;10.23;;
57561;SDS011;43397;51.530;5.974;2023-02-28T03:16:49;13.98;;;10.02;;
57561;SDS011;43397;51.530;5.974;2023-02-28T03:19:30;14.13;;;9.73;;
57561;SDS011;43397;51.530;5.974;2023-02-28T03:22:08;14.48;;;10.60;;
57561;SDS011;43397;51.530;5.974;2023-02-28T03:24:42;15.25;;;9.98;;
57561;SDS011;43397;51.530;5.974;2023-02-28T03:27:16;15.45;;;9.63;;
57561;SDS011;43397;51.530;5.974;2023-02-28T03:29:50;15.10;;;9.07;;
57561;SDS011;43397;51.530;5.974;2023-02-28T03:32:21;14.57;;;8.98;;
57561;SDS011;43397;51.530;5.974;2023-02-28T03:34:56;14.77;;;9.63;;
57561;SDS011;43397;51.530;5.974;2023-02-28T03:37:25;14.73;;;9.50;;
57561;SDS011;43397;51.530;5.974;2023-02-28T03:39:57;13.18;;;8.95;;
57561;SDS011;43397;51.530;5.974;2023-02-28T03:42:26;14.52;;;8.90;;
57561;SDS011;43397;51.530;5.974;2023-02-28T03:44:55;14.60;;;8.77;;
57561;SDS011;43397;51.530;5.974;2023-02-28T03:47:24;14.55;;;8.95;;
57561;SDS011;43397;51.530;5.974;2023-02-28T03:49:56;15.63;;;10.35;;
57561;SDS011;43397;51.530;5.974;2023-02-28T03:52:25;12.07;;;9.02;;
57561;SDS011;43397;51.530;5.974;2023-02-28T03:54:58;13.77;;;9.48;;
57561;SDS011;43397;51.530;5.974;2023-02-28T03:57:27;13.60;;;9.40;;
57561;SDS011;43397;51.530;5.974;2023-02-28T04:00:00;14.23;;;9.52;;
57561;SDS011;43397;51.530;5.974;2023-02-28T04:02:32;15.23;;;9.57;;
57561;SDS011;43397;51.530;5.974;2023-02-28T04:04:58;13.00;;;9.32;;
57561;SDS011;43397;51.530;5.974;2023-02-28T04:07:25;12.90;;;9.20;;
57561;SDS011;43397;51.530;5.974;2023-02-28T04:09:54;14.60;;;10.35;;
57561;SDS011;43397;51.530;5.974;2023-02-28T04:12:21;12.80;;;9.32;;
57561;SDS011;43397;51.530;5.974;2023-02-28T04:14:47;16.42;;;9.63;;
57561;SDS011;43397;51.530;5.974;2023-02-28T04:17:13;14.93;;;10.07;;
57561;SDS011;43397;51.530;5.974;2023-02-28T04:19:39;13.73;;;9.98;;
57561;SDS011;43397;51.530;5.974;2023-02-28T04:22:04;15.13;;;9.20;;
57561;SDS011;43397;51.530;5.974;2023-02-28T04:24:30;19.27;;;10.02;;
57561;SDS011;43397;51.530;5.974;2023-02-28T04:26:56;16.63;;;10.20;;
57561;SDS011;43397;51.530;5.974;2023-02-28T04:29:26;13.98;;;9.93;;
57561;SDS011;43397;51.530;5.974;2023-02-28T04:31:53;15.73;;;10.70;;
57561;SDS011;43397;51.530;5.974;2023-02-28T04:34:19;14.82;;;10.57;;
57561;SDS011;43397;51.530;5.974;2023-02-28T04:36:45;14.40;;;10.25;;
57561;SDS011;43397;51.530;5.974;2023-02-28T04:39:11;14.07;;;10.25;;
57561;SDS011;43397;51.530;5.974;2023-02-28T04:41:37;13.27;;;9.43;;
57561;SDS011;43397;51.530;5.974;2023-02-28T04:44:03;14.65;;;9.93;;
57561;SDS011;43397;51.530;5.974;2023-02-28T04:46:30;15.27;;;10.25;;
57561;SDS011;43397;51.530;5.974;2023-02-28T04:48:56;16.75;;;10.02;;
57561;SDS011;43397;51.530;5.974;2023-02-28T04:51:22;13.95;;;10.18;;
57561;SDS011;43397;51.530;5.974;2023-02-28T04:53:48;18.05;;;10.93;;
57561;SDS011;43397;51.530;5.974;2023-02-28T04:56:14;16.83;;;10.30;;
57561;SDS011;43397;51.530;5.974;2023-02-28T04:58:41;12.80;;;9.85;;
57561;SDS011;43397;51.530;5.974;2023-02-28T05:01:15;16.20;;;9.90;;
57561;SDS011;43397;51.530;5.974;2023-02-28T05:03:45;14.27;;;9.88;;
57561;SDS011;43397;51.530;5.974;2023-02-28T05:06:12;15.57;;;9.80;;
57561;SDS011;43397;51.530;5.974;2023-02-28T05:08:38;14.82;;;9.75;;
57561;SDS011;43397;51.530;5.974;2023-02-28T05:11:06;15.55;;;10.00;;
57561;SDS011;43397;51.530;5.974;2023-02-28T05:13:32;12.27;;;9.10;;
57561;SDS011;43397;51.530;5.974;2023-02-28T05:15:58;12.90;;;9.48;;
57561;SDS011;43397;51.530;5.974;2023-02-28T05:18:24;12.65;;;10.05;;
57561;SDS011;43397;51.530;5.974;2023-02-28T05:20:51;14.50;;;9.55;;
57561;SDS011;43397;51.530;5.974;2023-02-28T05:23:16;12.20;;;9.05;;
57561;SDS011;43397;51.530;5.974;2023-02-28T05:25:45;16.70;;;8.55;;
57561;SDS011;43397;51.530;5.974;2023-02-28T05:28:10;13.38;;;8.75;;
57561;SDS011;43397;51.530;5.974;2023-02-28T05:30:36;11.95;;;8.30;;
57561;SDS011;43397;51.530;5.974;2023-02-28T05:33:02;12.63;;;8.75;;
57561;SDS011;43397;51.530;5.974;2023-02-28T05:35:28;12.13;;;7.90;;
57561;SDS011;43397;51.530;5.974;2023-02-28T05:37:55;13.98;;;7.50;;
57561;SDS011;43397;51.530;5.974;2023-02-28T05:40:21;12.90;;;7.75;;
57561;SDS011;43397;51.530;5.974;2023-02-28T05:42:46;10.65;;;7.57;;
57561;SDS011;43397;51.530;5.974;2023-02-28T05:45:12;11.82;;;7.28;;
57561;SDS011;43397;51.530;5.974;2023-02-28T05:47:38;9.57;;;6.93;;
57561;SDS011;43397;51.530;5.974;2023-02-28T05:50:04;11.15;;;7.53;;
57561;SDS011;43397;51.530;5.974;2023-02-28T05:52:31;9.77;;;7.05;;
57561;SDS011;43397;51.530;5.974;2023-02-28T05:54:58;10.85;;;6.65;;
57561;SDS011;43397;51.530;5.974;2023-02-28T05:57:24;11.63;;;7.28;;
57561;SDS011;43397;51.530;5.974;2023-02-28T05:59:51;10.95;;;7.28;;
57561;SDS011;43397;51.530;5.974;2023-02-28T06:02:17;8.88;;;6.25;;
57561;SDS011;43397;51.530;5.974;2023-02-28T06:04:43;10.55;;;6.88;;
57561;SDS011;43397;51.530;5.974;2023-02-28T06:07:10;11.82;;;6.85;;
57561;SDS011;43397;51.530;5.974;2023-02-28T06:09:36;8.90;;;5.90;;
57561;SDS011;43397;51.530;5.974;2023-02-28T06:12:04;11.18;;;6.65;;
57561;SDS011;43397;51.530;5.974;2023-02-28T06:14:32;9.95;;;6.70;;
57561;SDS011;43397;51.530;5.974;2023-02-28T06:16:58;9.32;;;5.60;;
57561;SDS011;43397;51.530;5.974;2023-02-28T06:19:25;8.73;;;6.30;;
57561;SDS011;43397;51.530;5.974;2023-02-28T06:21:51;12.05;;;6.40;;
57561;SDS011;43397;51.530;5.974;2023-02-28T06:24:18;7.05;;;5.18;;
57561;SDS011;43397;51.530;5.974;2023-02-28T06:26:44;8.48;;;5.68;;
57561;SDS011;43397;51.530;5.974;2023-02-28T06:29:11;9.23;;;6.18;;
57561;SDS011;43397;51.530;5.974;2023-02-28T06:31:37;8.90;;;5.30;;
57561;SDS011;43397;51.530;5.974;2023-02-28T06:34:03;8.50;;;5.28;;
57561;SDS011;43397;51.530;5.974;2023-02-28T06:36:29;9.02;;;6.15;;
57561;SDS011;43397;51.530;5.974;2023-02-28T06:38:54;9.23;;;6.07;;
57561;SDS011;43397;51.530;5.974;2023-02-28T06:41:23;8.95;;;5.80;;
57561;SDS011;43397;51.530;5.974;2023-02-28T06:43:50;9.77;;;6.13;;
57561;SDS011;43397;51.530;5.974;2023-02-28T06:46:17;11.20;;;6.18;;
57561;SDS011;43397;51.530;5.974;2023-02-28T06:48:44;10.60;;;6.30;;
57561;SDS011;43397;51.530;5.974;2023-02-28T06:51:11;10.18;;;5.95;;
57561;SDS011;43397;51.530;5.974;2023-02-28T06:53:38;11.48;;;6.25;;
57561;SDS011;43397;51.530;5.974;2023-02-28T06:56:05;7.50;;;5.32;;
57561;SDS011;43397;51.530;5.974;2023-02-28T06:58:32;8.30;;;5.38;;
57561;SDS011;43397;51.530;5.974;2023-02-28T07:00:59;9.88;;;6.28;;
57561;SDS011;43397;51.530;5.974;2023-02-28T07:03:26;7.43;;;5.00;;
57561;SDS011;43397;51.530;5.974;2023-02-28T07:05:52;9.50;;;5.85;;
57561;SDS011;43397;51.530;5.974;2023-02-28T07:08:17;9.30;;;6.20;;
57561;SDS011;43397;51.530;5.974;2023-02-28T07:10:43;9.90;;;5.80;;
57561;SDS011;43397;51.530;5.974;2023-02-28T07:13:09;9.40;;;5.72;;
57561;SDS011;43397;51.530;5.974;2023-02-28T07:15:35;7.93;;;5.18;;
57561;SDS011;43397;51.530;5.974;2023-02-28T07:18:02;8.88;;;5.07;;
57561;SDS011;43397;51.530;5.974;2023-02-28T07:20:29;8.35;;;5.38;;
57561;SDS011;43397;51.530;5.974;2023-02-28T07:22:56;7.30;;;5.28;;
57561;SDS011;43397;51.530;5.974;2023-02-28T07:25:22;7.78;;;5.43;;
57561;SDS011;43397;51.530;5.974;2023-02-28T07:27:47;7.55;;;4.70;;
57561;SDS011;43397;51.530;5.974;2023-02-28T07:30:13;8.48;;;5.53;;
57561;SDS011;43397;51.530;5.974;2023-02-28T07:32:39;10.00;;;5.00;;
57561;SDS011;43397;51.530;5.974;2023-02-28T07:35:05;9.35;;;4.82;;
57561;SDS011;43397;51.530;5.974;2023-02-28T07:37:33;9.45;;;5.97;;
57561;SDS011;43397;51.530;5.974;2023-02-28T07:39:59;8.82;;;5.05;;
57561;SDS011;43397;51.530;5.974;2023-02-28T07:42:24;8.25;;;4.88;;
57561;SDS011;43397;51.530;5.974;2023-02-28T07:44:50;8.40;;;4.93;;
57561;SDS011;43397;51.530;5.974;2023-02-28T07:47:16;6.55;;;4.43;;
57561;SDS011;43397;51.530;5.974;2023-02-28T07:49:41;6.75;;;4.60;;
57561;SDS011;43397;51.530;5.974;2023-02-28T07:52:07;8.35;;;4.65;;
57561;SDS011;43397;51.530;5.974;2023-02-28T07:54:34;6.57;;;4.10;;
57561;SDS011;43397;51.530;5.974;2023-02-28T07:57:00;7.30;;;4.40;;
57561;SDS011;43397;51.530;5.974;2023-02-28T07:59:26;5.72;;;3.78;;
57561;SDS011;43397;51.530;5.974;2023-02-28T08:01:51;6.97;;;4.25;;
57561;SDS011;43397;51.530;5.974;2023-02-28T08:04:17;6.65;;;4.00;;
57561;SDS011;43397;51.530;5.974;2023-02-28T08:06:43;7.80;;;4.95;;
57561;SDS011;43397;51.530;5.974;2023-02-28T08:09:09;6.72;;;4.32;;
57561;SDS011;43397;51.530;5.974;2023-02-28T08:11:36;6.75;;;4.65;;
57561;SDS011;43397;51.530;5.974;2023-02-28T08:14:02;8.80;;;4.50;;
57561;SDS011;43397;51.530;5.974;2023-02-28T08:16:28;7.10;;;4.43;;
57561;SDS011;43397;51.530;5.974;2023-02-28T08:18:55;6.60;;;3.83;;
57561;SDS011;43397;51.530;5.974;2023-02-28T08:21:20;8.05;;;4.32;;
57561;SDS011;43397;51.530;5.974;2023-02-28T08:23:46;9.48;;;5.95;;
57561;SDS011;43397;51.530;5.974;2023-02-28T08:26:13;7.85;;;4.15;;
57561;SDS011;43397;51.530;5.974;2023-02-28T08:28:40;7.30;;;4.13;;
57561;SDS011;43397;51.530;5.974;2023-02-28T08:31:09;9.25;;;4.50;;
57561;SDS011;43397;51.530;5.974;2023-02-28T08:33:37;6.07;;;3.70;;
57561;SDS011;43397;51.530;5.974;2023-02-28T08:36:03;7.07;;;4.13;;
57561;SDS011;43397;51.530;5.974;2023-02-28T08:38:30;8.07;;;4.20;;
57561;SDS011;43397;51.530;5.974;2023-02-28T08:40:57;7.80;;;4.35;;
57561;SDS011;43397;51.530;5.974;2023-02-28T08:43:23;7.30;;;4.15;;
57561;SDS011;43397;51.530;5.974;2023-02-28T08:45:52;5.70;;;3.65;;
57561;SDS011;43397;51.530;5.974;2023-02-28T08:48:18;7.63;;;3.85;;
57561;SDS011;43397;51.530;5.974;2023-02-28T08:50:44;6.82;;;3.80;;
57561;SDS011;43397;51.530;5.974;2023-02-28T08:53:19;5.00;;;3.25;;
57561;SDS011;43397;51.530;5.974;2023-02-28T08:55:45;7.78;;;4.30;;
57561;SDS011;43397;51.530;5.974;2023-02-28T08:58:11;7.18;;;3.72;;
57561;SDS011;43397;51.530;5.974;2023-02-28T09:00:38;7.63;;;4.32;;
57561;SDS011;43397;51.530;5.974;2023-02-28T09:03:05;6.55;;;4.07;;
57561;SDS011;43397;51.530;5.974;2023-02-28T09:05:30;5.65;;;3.45;;
57561;SDS011;43397;51.530;5.974;2023-02-28T09:07:56;5.90;;;3.33;;
57561;SDS011;43397;51.530;5.974;2023-02-28T09:10:25;7.97;;;3.05;;
57561;SDS011;43397;51.530;5.974;2023-02-28T09:12:53;7.47;;;4.03;;
57561;SDS011;43397;51.530;5.974;2023-02-28T09:15:18;6.22;;;3.28;;
57561;SDS011;43397;51.530;5.974;2023-02-28T09:17:44;5.13;;;3.08;;
57561;SDS011;43397;51.530;5.974;2023-02-28T09:20:12;5.93;;;3.53;;
57561;SDS011;43397;51.530;5.974;2023-02-28T09:22:38;5.25;;;2.88;;
57561;SDS011;43397;51.530;5.974;2023-02-28T09:25:03;4.07;;;2.70;;
57561;SDS011;43397;51.530;5.974;2023-02-28T09:27:30;5.57;;;3.35;;
57561;SDS011;43397;51.530;5.974;2023-02-28T09:29:55;5.50;;;3.13;;
57561;SDS011;43397;51.530;5.974;2023-02-28T09:32:21;5.00;;;3.35;;
57561;SDS011;43397;51.530;5.974;2023-02-28T09:34:47;5.25;;;3.20;;
57561;SDS011;43397;51.530;5.974;2023-02-28T09:37:14;4.80;;;2.88;;
57561;SDS011;43397;51.530;5.974;2023-02-28T09:39:39;5.82;;;2.72;;
57561;SDS011;43397;51.530;5.974;2023-02-28T09:42:05;4.68;;;3.10;;
57561;SDS011;43397;51.530;5.974;2023-02-28T09:44:40;5.88;;;3.03;;
57561;SDS011;43397;51.530;5.974;2023-02-28T09:47:11;5.18;;;2.92;;
57561;SDS011;43397;51.530;5.974;2023-02-28T09:49:42;5.50;;;2.90;;
57561;SDS011;43397;51.530;5.974;2023-02-28T09:52:12;4.63;;;2.83;;
57561;SDS011;43397;51.530;5.974;2023-02-28T09:54:43;5.35;;;3.33;;
57561;SDS011;43397;51.530;5.974;2023-02-28T09:57:10;4.35;;;2.38;;
57561;SDS011;43397;51.530;5.974;2023-02-28T09:59:46;5.13;;;3.10;;
57561;SDS011;43397;51.530;5.974;2023-02-28T10:02:21;5.28;;;3.22;;
57561;SDS011;43397;51.530;5.974;2023-02-28T10:05:13;6.15;;;2.55;;
57561;SDS011;43397;51.530;5.974;2023-02-28T10:07:46;6.05;;;3.00;;
57561;SDS011;43397;51.530;5.974;2023-02-28T10:10:20;5.00;;;2.55;;
57561;SDS011;43397;51.530;5.974;2023-02-28T10:12:50;4.93;;;2.38;;
57561;SDS011;43397;51.530;5.974;2023-02-28T10:15:17;5.32;;;2.90;;
57561;SDS011;43397;51.530;5.974;2023-02-28T10:20:16;5.15;;;3.10;;
57561;SDS011;43397;51.530;5.974;2023-02-28T10:22:50;4.13;;;2.40;;
57561;SDS011;43397;51.530;5.974;2023-02-28T10:25:19;4.00;;;2.63;;
57561;SDS011;43397;51.530;5.974;2023-02-28T10:27:47;4.63;;;2.53;;
57561;SDS011;43397;51.530;5.974;2023-02-28T10:30:13;4.57;;;2.60;;
57561;SDS011;43397;51.530;5.974;2023-02-28T10:32:39;7.70;;;3.22;;
57561;SDS011;43397;51.530;5.974;2023-02-28T10:35:10;6.32;;;2.90;;
57561;SDS011;43397;51.530;5.974;2023-02-28T10:37:42;3.03;;;1.90;;
57561;SDS011;43397;51.530;5.974;2023-02-28T10:40:25;4.63;;;2.78;;
57561;SDS011;43397;51.530;5.974;2023-02-28T10:42:58;4.50;;;2.78;;
57561;SDS011;43397;51.530;5.974;2023-02-28T10:45:25;3.67;;;2.13;;
57561;SDS011;43397;51.530;5.974;2023-02-28T10:47:55;4.75;;;2.70;;
57561;SDS011;43397;51.530;5.974;2023-02-28T10:50:29;6.23;;;2.83;;
57561;SDS011;43397;51.530;5.974;2023-02-28T10:53:05;5.28;;;2.65;;
57561;SDS011;43397;51.530;5.974;2023-02-28T10:55:41;5.53;;;2.70;;
57561;SDS011;43397;51.530;5.974;2023-02-28T10:58:18;4.85;;;2.85;;
57561;SDS011;43397;51.530;5.974;2023-02-28T11:00:46;6.80;;;3.28;;
57561;SDS011;43397;51.530;5.974;2023-02-28T11:03:21;5.70;;;3.10;;
57561;SDS011;43397;51.530;5.974;2023-02-28T11:05:49;7.55;;;3.10;;
57561;SDS011;43397;51.530;5.974;2023-02-28T11:08:16;5.75;;;3.10;;
57561;SDS011;43397;51.530;5.974;2023-02-28T11:10:45;5.68;;;3.78;;
57561;SDS011;43397;51.530;5.974;2023-02-28T11:13:15;5.50;;;3.83;;
57561;SDS011;43397;51.530;5.974;2023-02-28T11:15:43;4.25;;;2.53;;
57561;SDS011;43397;51.530;5.974;2023-02-28T11:18:20;4.35;;;2.85;;
57561;SDS011;43397;51.530;5.974;2023-02-28T11:20:50;6.35;;;2.97;;
57561;SDS011;43397;51.530;5.974;2023-02-28T11:23:18;6.03;;;3.30;;
57561;SDS011;43397;51.530;5.974;2023-02-28T11:25:48;3.85;;;2.17;;
57561;SDS011;43397;51.530;5.974;2023-02-28T11:28:23;5.63;;;3.15;;
57561;SDS011;43397;51.530;5.974;2023-02-28T11:31:03;4.93;;;3.08;;
57561;SDS011;43397;51.530;5.974;2023-02-28T11:33:31;5.87;;;3.33;;
57561;SDS011;43397;51.530;5.974;2023-02-28T11:36:00;5.80;;;3.92;;
57561;SDS011;43397;51.530;5.974;2023-02-28T11:38:28;3.95;;;3.03;;
57561;SDS011;43397;51.530;5.974;2023-02-28T11:41:03;4.57;;;2.78;;
57561;SDS011;43397;51.530;5.974;2023-02-28T11:43:46;4.78;;;2.72;;
57561;SDS011;43397;51.530;5.974;2023-02-28T11:46:26;5.53;;;3.10;;
57561;SDS011;43397;51.530;5.974;2023-02-28T11:49:02;4.85;;;2.88;;
57561;SDS011;43397;51.530;5.974;2023-02-28T11:51:41;4.95;;;2.47;;
57561;SDS011;43397;51.530;5.974;2023-02-28T11:56:54;3.97;;;2.70;;
57561;SDS011;43397;51.530;5.974;2023-02-28T11:59:28;5.13;;;3.47;;
57561;SDS011;43397;51.530;5.974;2023-02-28T12:02:06;4.67;;;3.20;;
57561;SDS011;43397;51.530;5.974;2023-02-28T12:04:48;5.82;;;2.78;;
57561;SDS011;43397;51.530;5.974;2023-02-28T12:07:24;4.50;;;2.83;;
57561;SDS011;43397;51.530;5.974;2023-02-28T12:09:59;4.22;;;2.30;;
57561;SDS011;43397;51.530;5.974;2023-02-28T12:12:36;4.70;;;2.70;;
57561;SDS011;43397;51.530;5.974;2023-02-28T12:15:16;5.03;;;3.17;;
57561;SDS011;43397;51.530;5.974;2023-02-28T12:17:51;4.72;;;3.00;;
57561;SDS011;43397;51.530;5.974;2023-02-28T12:20:31;4.15;;;2.30;;
57561;SDS011;43397;51.530;5.974;2023-02-28T12:23:10;4.75;;;2.72;;
57561;SDS011;43397;51.530;5.974;2023-02-28T12:28:41;4.93;;;3.22;;
57561;SDS011;43397;51.530;5.974;2023-02-28T12:31:10;4.78;;;3.03;;
57561;SDS011;43397;51.530;5.974;2023-02-28T12:33:43;6.45;;;3.30;;
57561;SDS011;43397;51.530;5.974;2023-02-28T12:36:13;5.03;;;3.13;;
57561;SDS011;43397;51.530;5.974;2023-02-28T12:38:43;5.35;;;3.20;;
57561;SDS011;43397;51.530;5.974;2023-02-28T12:41:12;4.38;;;2.95;;
57561;SDS011;43397;51.530;5.974;2023-02-28T12:43:43;5.32;;;3.25;;
57561;SDS011;43397;51.530;5.974;2023-02-28T12:46:12;5.85;;;3.50;;
57561;SDS011;43397;51.530;5.974;2023-02-28T12:48:43;5.70;;;2.92;;
57561;SDS011;43397;51.530;5.974;2023-02-28T12:51:12;5.80;;;3.42;;
57561;SDS011;43397;51.530;5.974;2023-02-28T12:53:42;9.50;;;3.03;;
57561;SDS011;43397;51.530;5.974;2023-02-28T12:56:21;4.72;;;2.95;;
57561;SDS011;43397;51.530;5.974;2023-02-28T12:58:57;5.80;;;3.67;;
57561;SDS011;43397;51.530;5.974;2023-02-28T13:01:43;6.85;;;3.78;;
57561;SDS011;43397;51.530;5.974;2023-02-28T13:04:40;6.32;;;4.32;;
57561;SDS011;43397;51.530;5.974;2023-02-28T13:10:21;6.15;;;4.20;;
57561;SDS011;43397;51.530;5.974;2023-02-28T13:12:48;5.55;;;3.60;;
57561;SDS011;43397;51.530;5.974;2023-02-28T13:15:18;5.70;;;3.78;;
57561;SDS011;43397;51.530;5.974;2023-02-28T13:17:47;6.53;;;4.50;;
57561;SDS011;43397;51.530;5.974;2023-02-28T13:20:16;5.87;;;3.47;;
57561;SDS011;43397;51.530;5.974;2023-02-28T13:22:44;5.83;;;4.10;;
57561;SDS011;43397;51.530;5.974;2023-02-28T13:31:44;5.47;;;4.38;;
57561;SDS011;43397;51.530;5.974;2023-02-28T13:35:14;7.10;;;4.20;;
57561;SDS011;43397;51.530;5.974;2023-02-28T13:38:08;4.80;;;3.78;;
57561;SDS011;43397;51.530;5.974;2023-02-28T13:40:40;6.47;;;4.20;;
57561;SDS011;43397;51.530;5.974;2023-02-28T13:43:07;5.45;;;4.13;;
57561;SDS011;43397;51.530;5.974;2023-02-28T13:45:34;5.60;;;4.30;;
57561;SDS011;43397;51.530;5.974;2023-02-28T13:48:00;5.93;;;4.60;;
57561;SDS011;43397;51.530;5.974;2023-02-28T13:50:29;7.43;;;5.10;;
57561;SDS011;43397;51.530;5.974;2023-02-28T13:56:03;5.85;;;4.47;;
57561;SDS011;43397;51.530;5.974;2023-02-28T13:58:39;5.38;;;3.83;;
57561;SDS011;43397;51.530;5.974;2023-02-28T14:01:13;6.05;;;4.70;;
57561;SDS011;43397;51.530;5.974;2023-02-28T14:03:55;5.18;;;3.90;;
57561;SDS011;43397;51.530;5.974;2023-02-28T14:06:31;5.80;;;3.92;;
57561;SDS011;43397;51.530;5.974;2023-02-28T14:08:59;5.10;;;3.50;;
57561;SDS011;43397;51.530;5.974;2023-02-28T14:11:28;6.65;;;3.58;;
57561;SDS011;43397;51.530;5.974;2023-02-28T14:13:56;5.82;;;3.47;;
57561;SDS011;43397;51.530;5.974;2023-02-28T14:16:23;5.82;;;4.10;;
57561;SDS011;43397;51.530;5.974;2023-02-28T14:18:51;5.57;;;4.13;;
57561;SDS011;43397;51.530;5.974;2023-02-28T14:21:23;6.22;;;4.03;;
57561;SDS011;43397;51.530;5.974;2023-02-28T14:24:02;5.90;;;4.00;;
57561;SDS011;43397;51.530;5.974;2023-02-28T14:29:46;5.78;;;3.65;;
57561;SDS011;43397;51.530;5.974;2023-02-28T14:32:31;4.75;;;2.97;;
57561;SDS011;43397;51.530;5.974;2023-02-28T14:35:02;5.25;;;3.15;;
57561;SDS011;43397;51.530;5.974;2023-02-28T14:37:42;6.05;;;3.53;;
57561;SDS011;43397;51.530;5.974;2023-02-28T14:40:13;5.60;;;2.85;;
57561;SDS011;43397;51.530;5.974;2023-02-28T14:42:45;5.10;;;3.20;;
57561;SDS011;43397;51.530;5.974;2023-02-28T14:45:17;5.55;;;3.95;;
57561;SDS011;43397;51.530;5.974;2023-02-28T14:47:47;5.85;;;4.28;;
57561;SDS011;43397;51.530;5.974;2023-02-28T14:50:18;6.13;;;4.10;;
57561;SDS011;43397;51.530;5.974;2023-02-28T14:52:45;5.47;;;3.10;;
57561;SDS011;43397;51.530;5.974;2023-02-28T14:55:13;5.40;;;3.47;;
57561;SDS011;43397;51.530;5.974;2023-02-28T14:57:50;8.95;;;3.92;;
57561;SDS011;43397;51.530;5.974;2023-02-28T15:00:20;7.43;;;3.72;;
57561;SDS011;43397;51.530;5.974;2023-02-28T15:02:48;6.53;;;4.93;;
57561;SDS011;43397;51.530;5.974;2023-02-28T15:05:19;16.00;;;4.28;;
57561;SDS011;43397;51.530;5.974;2023-02-28T15:07:48;6.40;;;3.65;;
57561;SDS011;43397;51.530;5.974;2023-02-28T15:10:27;6.28;;;4.38;;
57561;SDS011;43397;51.530;5.974;2023-02-28T15:12:54;4.90;;;3.53;;
57561;SDS011;43397;51.530;5.974;2023-02-28T15:15:24;6.28;;;3.95;;
57561;SDS011;43397;51.530;5.974;2023-02-28T15:17:58;6.13;;;3.80;;
57561;SDS011;43397;51.530;5.974;2023-02-28T15:20:27;5.00;;;3.42;;
57561;SDS011;43397;51.530;5.974;2023-02-28T15:22:54;6.32;;;3.60;;
57561;SDS011;43397;51.530;5.974;2023-02-28T15:25:23;6.63;;;3.42;;
57561;SDS011;43397;51.530;5.974;2023-02-28T15:27:52;5.43;;;3.65;;